Time;durP1;ratioP1;P1;durP2;ratioP2;P2;SDS_P1;SDS_P2;PMS_P1;PMS_P2;Temp;Humidity;BMP_temperature;BMP_pressure;BME280_temperature;BME280_humidity;BME280_pressure;Samples;Min_cycle;Max_cycle;Signal;HPM_P1;HPM_P2
2022/07/25 00:01:19;;;;;;;13.88;8.10;;;;;;;25.67;63.47;94934.44;5011796;28;20185;-77
2022/07/25 00:03:44;;;;;;;11.65;8.00;;;;;;;25.62;63.62;94922.94;4994539;28;20212;-77
2022/07/25 00:06:10;;;;;;;12.10;7.95;;;;;;;25.55;63.90;94915.25;5012028;28;20629;-78
2022/07/25 00:08:35;;;;;;;13.30;7.93;;;;;;;25.60;63.75;94923.25;5012052;28;20239;-78
2022/07/25 00:11:01;;;;;;;10.65;8.25;;;;;;;25.52;63.96;94923.94;5012046;28;20251;-77
2022/07/25 00:13:26;;;;;;;16.50;11.73;;;;;;;25.40;63.88;94904.81;5011979;28;20183;-78
2022/07/25 00:15:52;;;;;;;10.20;7.90;;;;;;;25.45;63.77;94926.25;5011978;28;20184;-77
2022/07/25 00:18:17;;;;;;;13.02;9.40;;;;;;;25.47;64.23;94930.25;5011958;28;20177;-77
2022/07/25 00:20:43;;;;;;;16.02;11.77;;;;;;;25.53;63.96;94925.53;5011823;28;20659;-77
2022/07/25 00:23:08;;;;;;;14.63;9.65;;;;;;;25.49;64.11;94925.34;5011745;28;20200;-77
2022/07/25 00:25:33;;;;;;;12.07;7.82;;;;;;;25.35;62.79;94907.59;5011946;28;20172;-77
2022/07/25 00:27:59;;;;;;;11.40;7.70;;;;;;;25.43;63.77;94920.34;5011822;28;20180;-77
2022/07/25 00:30:24;;;;;;;9.02;7.50;;;;;;;25.40;63.77;94912.91;5012059;28;20661;-77
2022/07/25 00:32:50;;;;;;;16.27;12.23;;;;;;;25.35;64.73;94908.38;5011764;28;20203;-78
2022/07/25 00:35:15;;;;;;;16.02;12.15;;;;;;;25.35;64.45;94908.38;5011638;28;20180;-78
2022/07/25 00:37:41;;;;;;;24.48;16.23;;;;;;;25.35;64.51;94904.91;4993829;28;20180;-77
2022/07/25 00:40:07;;;;;;;18.35;13.27;;;;;;;25.29;64.35;94881.84;5011380;28;20172;-77
2022/07/25 00:42:32;;;;;;;12.40;7.70;;;;;;;25.21;63.99;94866.41;5011470;28;20208;-77
2022/07/25 00:44:58;;;;;;;15.40;7.85;;;;;;;25.35;64.85;94891.41;5011514;28;20230;-77
2022/07/25 00:47:24;;;;;;;12.13;7.80;;;;;;;25.29;65.91;94895.34;5011451;28;20235;-77
2022/07/25 00:49:50;;;;;;;12.50;8.15;;;;;;;25.27;65.75;94895.63;5012005;28;20616;-77
2022/07/25 00:52:15;;;;;;;12.32;8.57;;;;;;;25.26;65.81;94898.63;5011300;28;20587;-77
2022/07/25 00:54:41;;;;;;;14.98;8.88;;;;;;;25.27;65.74;94898.31;5011095;28;20222;-77
2022/07/25 00:57:06;;;;;;;11.95;8.55;;;;;;;25.25;65.75;94897.84;5011366;28;20168;-77
2022/07/25 00:59:32;;;;;;;10.95;7.45;;;;;;;25.06;64.77;94873.72;5010766;28;20231;-77
2022/07/25 01:01:57;;;;;;;11.13;7.60;;;;;;;25.06;65.10;94884.50;5010782;28;20192;-77
2022/07/25 01:04:23;;;;;;;10.02;7.63;;;;;;;25.13;64.84;94892.16;5015089;28;20200;-77
2022/07/25 01:06:49;;;;;;;14.38;7.35;;;;;;;25.13;65.02;94901.06;5015317;28;20176;-77
2022/07/25 01:09:15;;;;;;;13.50;8.70;;;;;;;25.12;64.68;94898.66;5015475;28;20174;-77
2022/07/25 01:11:41;;;;;;;10.35;6.97;;;;;;;25.12;64.18;94888.66;5014698;28;20275;-77
2022/07/25 01:14:06;;;;;;;9.73;8.40;;;;;;;25.00;63.92;94864.13;5015005;28;20186;-77
2022/07/25 01:16:31;;;;;;;9.95;7.47;;;;;;;25.02;63.96;94874.59;5014989;28;20180;-77
2022/07/25 01:18:57;;;;;;;9.65;7.13;;;;;;;25.08;63.69;94887.66;5014878;28;20180;-77
2022/07/25 01:21:24;;;;;;;10.73;7.40;;;;;;;25.08;63.95;94897.66;5014785;28;20180;-77
2022/07/25 01:23:49;;;;;;;8.82;7.00;;;;;;;24.96;63.70;94887.38;5014828;28;20195;-77
2022/07/25 01:26:15;;;;;;;9.45;7.20;;;;;;;25.01;64.28;94889.97;5014728;28;20173;-77
2022/07/25 01:28:41;;;;;;;9.00;7.28;;;;;;;25.01;64.59;94895.34;5014945;28;20177;-77
2022/07/25 01:31:06;;;;;;;10.30;7.80;;;;;;;25.01;64.21;94892.66;5014653;28;20196;-77
2022/07/25 01:33:32;;;;;;;13.00;7.53;;;;;;;24.92;64.37;94889.06;5014702;28;20573;-77
2022/07/25 01:35:57;;;;;;;9.63;7.95;;;;;;;24.88;64.97;94887.25;5014537;28;20633;-77
2022/07/25 01:38:23;;;;;;;20.77;7.57;;;;;;;24.94;65.32;94894.16;5014508;28;20176;-77
2022/07/25 01:40:48;;;;;;;12.80;7.88;;;;;;;24.91;65.10;94895.56;5014599;28;20267;-77
2022/07/25 01:43:14;;;;;;;9.45;7.85;;;;;;;24.89;65.63;94897.75;5014257;28;20203;-77
2022/07/25 01:45:39;;;;;;;9.50;7.85;;;;;;;24.92;65.29;94899.06;5014739;28;20191;-77
2022/07/25 01:48:05;;;;;;;11.98;8.50;;;;;;;24.93;65.26;94895.25;5014541;28;20187;-77
2022/07/25 01:50:30;;;;;;;12.63;8.80;;;;;;;24.91;64.94;94903.63;5014316;28;20707;-77
2022/07/25 01:52:56;;;;;;;12.23;9.05;;;;;;;24.90;64.24;94895.84;5014433;28;20175;-77
2022/07/25 01:55:21;;;;;;;11.93;9.23;;;;;;;24.83;64.36;94883.56;5014356;28;20263;-77
2022/07/25 01:57:47;;;;;;;13.88;9.52;;;;;;;24.75;64.30;94876.19;5014171;28;20264;-77
2022/07/25 02:00:14;;;;;;;22.67;15.50;;;;;;;24.87;64.22;94897.22;5014228;28;20708;-77
2022/07/25 02:02:41;;;;;;;19.42;11.40;;;;;;;24.88;64.45;94900.72;5014141;28;20263;-77
2022/07/25 02:05:08;;;;;;;26.15;19.92;;;;;;;24.89;64.36;94905.81;5014042;28;20211;-76
2022/07/25 02:07:33;;;;;;;22.13;14.25;;;;;;;24.90;64.19;94902.03;5014012;28;20307;-77
2022/07/25 02:09:59;;;;;;;11.82;7.43;;;;;;;24.91;63.86;94908.22;5013883;28;20164;-77
2022/07/25 02:12:24;;;;;;;9.52;7.57;;;;;;;24.84;64.26;94889.75;5013866;28;20251;-77
2022/07/25 02:14:50;;;;;;;10.50;8.32;;;;;;;24.78;64.40;94901.72;5013947;28;20175;-77
2022/07/25 02:17:15;;;;;;;11.95;7.80;;;;;;;24.43;65.09;94887.81;5013899;28;20175;-77
2022/07/25 02:19:41;;;;;;;12.20;7.63;;;;;;;24.22;66.26;94880.38;5014201;28;20727;-77
2022/07/25 02:22:06;;;;;;;11.05;8.55;;;;;;;24.32;66.60;94905.25;5014084;28;20180;-77
2022/07/25 02:24:32;;;;;;;9.43;8.15;;;;;;;24.41;66.43;94910.75;5013788;28;20600;-77
2022/07/25 02:26:57;;;;;;;9.98;7.60;;;;;;;24.38;66.37;94912.16;5013998;28;20259;-77
2022/07/25 02:29:23;;;;;;;15.57;10.90;;;;;;;24.38;66.63;94912.16;5014053;28;20994;-77
2022/07/25 02:31:50;;;;;;;19.10;13.30;;;;;;;24.32;66.78;94910.63;5013724;28;20179;-77
2022/07/25 02:34:16;;;;;;;13.55;9.15;;;;;;;24.11;66.86;94877.06;5013621;28;20165;-77
2022/07/25 02:36:42;;;;;;;12.43;8.77;;;;;;;23.96;67.81;94906.88;5013732;28;20192;-77
2022/07/25 02:39:07;;;;;;;11.02;8.40;;;;;;;23.57;69.45;94907.22;5014150;28;20238;-78
2022/07/25 02:41:32;;;;;;;12.80;9.23;;;;;;;23.46;69.92;94882.34;5014009;28;20500;-78
2022/07/25 02:43:58;;;;;;;11.35;8.98;;;;;;;23.36;70.82;94887.84;5013797;28;20195;-78
2022/07/25 02:46:23;;;;;;;12.88;8.30;;;;;;;23.45;70.84;94898.75;5013731;28;20175;-78
2022/07/25 02:48:49;;;;;;;13.60;8.90;;;;;;;23.51;70.64;94895.75;5013771;28;20173;-78
2022/07/25 02:51:14;;;;;;;11.40;8.48;;;;;;;23.60;70.14;94902.06;5013795;28;20175;-78
2022/07/25 02:53:39;;;;;;;17.75;9.40;;;;;;;23.64;70.11;94907.66;5013817;28;20734;-78
2022/07/25 02:56:05;;;;;;;11.98;9.63;;;;;;;23.74;69.63;94906.69;5013542;28;20603;-78
2022/07/25 02:58:31;;;;;;;12.38;9.00;;;;;;;23.82;69.16;94903.34;5013527;28;20188;-78
2022/07/25 03:00:56;;;;;;;12.10;8.20;;;;;;;23.86;68.36;94907.06;5013348;28;20615;-78
2022/07/25 03:03:22;;;;;;;12.88;9.43;;;;;;;23.76;68.28;94889.19;5013437;28;20199;-77
2022/07/25 03:05:47;;;;;;;11.80;8.95;;;;;;;23.92;68.31;94909.38;5013511;28;20192;-77
2022/07/25 03:08:13;;;;;;;11.45;9.13;;;;;;;23.92;68.19;94911.25;5013174;28;20176;-77
2022/07/25 03:10:38;;;;;;;14.18;8.48;;;;;;;23.93;67.70;94910.19;5013260;28;20164;-78
2022/07/25 03:13:04;;;;;;;11.07;9.50;;;;;;;23.83;67.42;94908.44;5013303;28;20165;-78
2022/07/25 03:15:29;;;;;;;15.70;9.20;;;;;;;23.86;67.71;94913.25;5013106;28;20165;-78
2022/07/25 03:17:54;;;;;;;10.73;8.43;;;;;;;23.92;66.90;94913.97;5013396;28;20172;-78
2022/07/25 03:20:20;;;;;;;14.45;8.80;;;;;;;23.94;66.88;94914.47;5013040;28;20738;-78
2022/07/25 03:22:45;;;;;;;10.82;8.57;;;;;;;23.99;66.53;94914.38;5013137;28;20704;-78
2022/07/25 03:25:11;;;;;;;12.07;8.95;;;;;;;23.98;65.81;94921.66;5012932;28;20207;-78
2022/07/25 03:27:36;;;;;;;12.60;8.63;;;;;;;23.99;66.14;94917.88;4995434;28;20187;-78
2022/07/25 03:30:02;;;;;;;12.25;7.35;;;;;;;23.78;65.60;94880.84;5013025;28;20292;-78
2022/07/25 03:32:28;;;;;;;16.27;8.07;;;;;;;23.85;65.50;94897.41;5012876;28;20657;-78
2022/07/25 03:34:53;;;;;;;10.23;6.70;;;;;;;23.77;65.57;94898.88;5013063;28;20183;-78
2022/07/25 03:37:18;;;;;;;11.38;7.45;;;;;;;23.86;65.62;94912.44;5013320;28;20176;-78
2022/07/25 03:39:44;;;;;;;9.68;6.68;;;;;;;23.88;65.28;94910.25;5013125;28;20172;-78
2022/07/25 03:42:10;;;;;;;20.08;13.90;;;;;;;23.87;65.22;94912.13;5013230;28;20274;-79
2022/07/25 03:44:36;;;;;;;29.90;19.00;;;;;;;23.70;65.17;94887.66;5011961;28;20766;-79
2022/07/25 03:47:03;;;;;;;19.92;14.38;;;;;;;23.83;65.31;94910.34;5011555;28;20187;-80
2022/07/25 03:49:28;;;;;;;16.33;11.68;;;;;;;23.75;65.56;94908.31;5013330;28;20188;-80
2022/07/25 03:51:53;;;;;;;12.57;9.88;;;;;;;23.86;65.65;94915.94;5012334;28;20315;-78
2022/07/25 03:54:19;;;;;;;10.57;8.40;;;;;;;23.75;65.58;94919.88;5008932;28;20173;-78
2022/07/25 03:56:46;;;;;;;9.82;7.10;;;;;;;23.66;65.45;94911.66;5006923;28;20250;-77
2022/07/25 03:59:15;;;;;;;13.57;7.53;;;;;;;23.78;65.78;94915.78;4999711;28;20267;-77
2022/07/25 04:01:42;;;;;;;12.05;7.82;;;;;;;23.79;65.21;94902.03;5007105;28;20184;-77
2022/07/25 04:04:08;;;;;;;10.60;7.40;;;;;;;23.95;64.76;94916.88;4992440;28;20201;-77
2022/07/25 04:06:35;;;;;;;12.75;7.10;;;;;;;23.98;63.98;94908.19;5003981;28;20180;-80
2022/07/25 04:09:00;;;;;;;9.68;7.47;;;;;;;24.03;63.88;94915.41;5012037;28;20184;-76
2022/07/25 04:11:28;;;;;;;9.88;7.22;;;;;;;24.06;64.17;94925.56;5012380;28;20211;-78
2022/07/25 04:13:54;;;;;;;14.50;8.02;;;;;;;24.15;64.27;94925.69;5012296;28;20552;-78
2022/07/25 04:16:19;;;;;;;14.40;7.72;;;;;;;24.23;63.79;94920.47;5012281;28;20172;-79
2022/07/25 04:18:45;;;;;;;10.02;8.02;;;;;;;24.37;62.81;94924.00;5012705;28;20202;-77
2022/07/25 04:21:10;;;;;;;11.93;8.18;;;;;;;24.57;62.47;94919.34;5012041;28;20242;-79
2022/07/25 04:23:36;;;;;;;10.00;7.00;;;;;;;24.40;62.18;94917.22;5012261;28;20680;-80
2022/07/25 04:26:02;;;;;;;15.70;7.93;;;;;;;24.23;63.24;94919.66;5012264;28;20184;-78
2022/07/25 04:28:28;;;;;;;9.20;7.40;;;;;;;24.31;63.14;94909.03;5011619;28;20187;-79
2022/07/25 04:30:54;;;;;;;9.50;7.22;;;;;;;24.64;62.12;94909.81;5011940;28;20176;-78
2022/07/25 04:33:20;;;;;;;10.05;8.02;;;;;;;24.75;60.87;94905.00;5011934;28;20641;-78
2022/07/25 04:35:46;;;;;;;9.68;8.00;;;;;;;24.90;60.66;94909.31;5011849;28;20184;-79
2022/07/25 04:38:11;;;;;;;11.07;7.63;;;;;;;24.94;60.74;94911.13;5009966;28;20242;-79
2022/07/25 04:40:38;;;;;;;9.82;7.20;;;;;;;25.17;59.77;94903.91;5010748;28;20180;-79
2022/07/25 04:43:04;;;;;;;12.95;8.82;;;;;;;25.47;59.25;94892.50;4992512;28;20565;-79
2022/07/25 04:45:30;;;;;;;10.35;5.97;;;;;;;25.70;57.76;94887.16;5010847;28;20183;-80
2022/07/25 04:47:55;;;;;;;9.15;7.45;;;;;;;26.21;56.15;94921.84;5010550;28;20188;-80
2022/07/25 04:50:21;;;;;;;9.55;6.75;;;;;;;26.56;55.52;94914.78;5012136;28;20226;-80
2022/07/25 04:52:47;;;;;;;11.18;6.25;;;;;;;26.74;54.76;94891.34;5012174;28;20176;-80
2022/07/25 04:55:12;;;;;;;9.20;6.45;;;;;;;27.16;53.94;94919.66;5012158;28;20263;-80
2022/07/25 04:57:38;;;;;;;13.70;7.53;;;;;;;27.39;53.49;94919.28;5010279;28;20200;-80
2022/07/25 05:00:06;;;;;;;9.18;6.22;;;;;;;27.69;51.79;94925.69;5011055;28;20238;-80
2022/07/25 05:02:32;;;;;;;8.55;5.72;;;;;;;27.96;51.29;94929.22;4993624;28;20250;-80
2022/07/25 05:04:57;;;;;;;10.38;6.43;;;;;;;28.26;50.29;94924.78;5011685;28;20182;-79
2022/07/25 05:07:23;;;;;;;11.00;6.18;;;;;;;28.53;49.92;94922.50;5011549;28;20172;-79
2022/07/25 05:09:48;;;;;;;15.68;8.80;;;;;;;28.63;49.17;94907.78;5011446;28;20697;-79
2022/07/25 05:12:14;;;;;;;10.15;6.18;;;;;;;28.96;48.76;94926.22;5011155;28;20718;-79
2022/07/25 05:14:39;;;;;;;8.15;6.70;;;;;;;29.15;48.08;94919.25;5012214;28;20705;-79
2022/07/25 05:17:04;;;;;;;15.57;9.63;;;;;;;29.21;48.00;94911.75;5012006;28;20176;-79
2022/07/25 05:19:30;;;;;;;7.88;6.68;;;;;;;29.44;47.11;94913.09;5012294;28;20175;-81
2022/07/25 05:21:56;;;;;;;57.28;8.60;;;;;;;29.43;46.31;94894.41;5012214;28;20160;-80
2022/07/25 05:24:21;;;;;;;1999.90;999.90;;;;;;;29.52;45.23;94904.09;5011867;28;20200;-80
2022/07/25 05:26:48;;;;;;;279.80;56.20;;;;;;;29.47;44.93;94928.72;5011761;28;20562;-78
2022/07/25 05:29:13;;;;;;;15.60;5.70;;;;;;;29.33;45.65;94932.75;5010489;28;20307;-80
2022/07/25 05:31:39;;;;;;;7.57;5.97;;;;;;;29.35;45.96;94928.59;5009603;28;20215;-79
2022/07/25 05:34:04;;;;;;;7.57;5.22;;;;;;;29.37;46.39;94926.38;5010217;28;20187;-79
2022/07/25 05:36:30;;;;;;;9.30;5.90;;;;;;;29.08;46.06;94901.91;5010736;28;20651;-78
2022/07/25 05:38:55;;;;;;;10.35;6.38;;;;;;;29.46;46.49;94926.31;5010962;28;20260;-78
2022/07/25 05:41:21;;;;;;;1999.90;999.90;;;;;;;29.61;46.15;94923.03;5011078;28;20222;-78
2022/07/25 05:43:47;;;;;;;10.05;5.40;;;;;;;29.38;45.39;94908.97;5011165;28;20646;-78
2022/07/25 05:46:13;;;;;;;7.70;7.00;;;;;;;29.42;45.19;94918.03;5011379;28;20157;-78
2022/07/25 05:48:39;;;;;;;6.93;5.25;;;;;;;29.14;45.32;94917.69;5012388;28;20178;-79
2022/07/25 05:51:04;;;;;;;7.20;5.32;;;;;;;29.28;46.55;94917.47;5014858;28;20180;-78
2022/07/25 05:53:30;;;;;;;5.70;5.20;;;;;;;29.11;46.94;94899.34;5014816;28;20181;-79
2022/07/25 05:55:55;;;;;;;13.57;7.95;;;;;;;29.21;46.11;94917.19;5015129;28;20176;-78
2022/07/25 05:58:21;;;;;;;5.93;5.20;;;;;;;29.18;45.80;94920.53;5015316;28;20650;-79
2022/07/25 06:00:47;;;;;;;10.20;6.88;;;;;;;29.33;46.24;94909.13;5014765;28;20220;-79
2022/07/25 06:03:12;;;;;;;9.20;6.75;;;;;;;29.75;45.38;94922.81;5015014;28;20691;-79
2022/07/25 06:05:38;;;;;;;5.63;5.03;;;;;;;30.09;45.01;94919.06;5014983;28;20653;-79
2022/07/25 06:08:04;;;;;;;7.22;5.15;;;;;;;30.52;45.37;94916.75;5014872;28;20267;-79
2022/07/25 06:10:29;;;;;;;10.60;8.02;;;;;;;30.90;43.52;94916.47;5014780;28;20252;-79
2022/07/25 06:12:55;;;;;;;7.97;4.68;;;;;;;31.20;43.15;94898.06;5014844;28;20157;-79
2022/07/25 06:15:20;;;;;;;1061.57;881.15;;;;;;;31.58;42.04;94914.00;5014671;28;20332;-79
2022/07/25 06:17:46;;;;;;;1999.90;999.90;;;;;;;31.72;40.77;94919.94;5014843;28;20644;-79
2022/07/25 06:20:11;;;;;;;1999.90;999.90;;;;;;;31.40;41.86;94908.00;5014959;28;20255;-79
2022/07/25 06:22:37;;;;;;;1999.90;999.90;;;;;;;31.52;41.03;94903.72;5014782;28;20176;-79
2022/07/25 06:25:03;;;;;;;1999.90;999.90;;;;;;;31.82;41.24;94921.41;5014237;28;20666;-79
2022/07/25 06:27:28;;;;;;;1999.90;999.90;;;;;;;31.92;39.23;94920.09;5015361;28;20165;-80
2022/07/25 06:29:54;;;;;;;1999.90;999.90;;;;;;;32.07;39.61;94912.03;5014611;28;20672;-79
2022/07/25 06:32:19;;;;;;;1999.90;999.90;;;;;;;32.41;38.91;94918.06;5014511;28;20698;-78
2022/07/25 06:34:45;;;;;;;1999.90;999.90;;;;;;;32.31;39.24;94878.44;5014226;28;20255;-78
2022/07/25 06:37:10;;;;;;;1999.90;999.90;;;;;;;32.87;38.40;94919.28;5013920;28;20183;-78
2022/07/25 06:39:36;;;;;;;1999.90;999.90;;;;;;;33.09;38.09;94902.31;5014014;28;20176;-78
2022/07/25 06:42:02;;;;;;;1999.90;999.90;;;;;;;33.34;38.31;94911.13;5014012;28;20168;-78
2022/07/25 06:44:31;;;;;;;1999.90;999.90;;;;;;;33.53;37.15;94910.41;5013779;28;20719;-79
2022/07/25 06:46:57;;;;;;;1999.90;999.90;;;;;;;33.61;37.29;94906.69;4994569;28;20230;-78
2022/07/25 06:49:22;;;;;;;1999.90;999.90;;;;;;;33.71;36.14;94903.41;4994341;28;20165;-78
2022/07/25 06:51:48;;;;;;;1999.90;999.90;;;;;;;33.81;36.65;94896.63;4994294;28;20173;-78
2022/07/25 06:54:14;;;;;;;1999.90;999.90;;;;;;;34.14;36.15;94907.09;4994281;28;20173;-78
2022/07/25 06:56:40;;;;;;;1999.90;999.90;;;;;;;33.99;35.21;94884.91;4976664;28;20200;-78
2022/07/25 06:59:05;;;;;;;1999.90;999.90;;;;;;;34.14;36.09;94901.63;4994051;28;20214;-78
2022/07/25 07:01:31;;;;;;;1999.90;999.90;;;;;;;34.11;34.59;94902.31;4993380;28;20694;-78
2022/07/25 07:03:56;;;;;;;1999.90;999.90;;;;;;;33.91;36.71;94887.84;4994488;28;20237;-78
2022/07/25 07:06:21;;;;;;;1999.90;999.90;;;;;;;34.12;35.34;94898.44;4994255;28;20173;-78
2022/07/25 07:08:47;;;;;;;1999.90;999.90;;;;;;;34.25;35.07;94895.22;4993945;28;20694;-79
2022/07/25 07:11:14;;;;;;;1999.90;999.90;;;;;;;34.30;35.71;94894.16;4994098;28;20177;-79
2022/07/25 07:13:39;;;;;;;1999.90;999.90;;;;;;;34.31;35.39;94885.59;4994049;28;20172;-79
2022/07/25 07:16:05;;;;;;;1999.90;999.90;;;;;;;34.65;34.81;94883.88;4994110;28;20185;-78
2022/07/25 07:18:31;;;;;;;1999.90;999.90;;;;;;;34.85;34.01;94892.09;4994048;28;20662;-78
2022/07/25 07:20:56;;;;;;;1999.90;999.90;;;;;;;34.98;34.29;94896.22;4994139;28;20236;-79
2022/07/25 07:23:21;;;;;;;1999.90;999.90;;;;;;;35.17;34.22;94885.19;4993909;28;20193;-79
2022/07/25 07:25:47;;;;;;;1999.90;999.90;;;;;;;35.07;33.30;94883.84;4994281;28;20571;-79
2022/07/25 07:28:13;;;;;;;1999.90;999.90;;;;;;;35.08;34.20;94890.13;4993926;28;20654;-79
2022/07/25 07:30:39;;;;;;;1999.90;999.90;;;;;;;35.33;34.28;94885.06;4993821;28;20177;-78
2022/07/25 07:33:04;;;;;;;1999.90;999.90;;;;;;;35.58;33.12;94886.22;4993502;28;20558;-78
2022/07/25 07:35:29;;;;;;;1999.90;999.90;;;;;;;35.39;32.26;94883.59;4976444;28;20660;-78
2022/07/25 07:37:55;;;;;;;1999.90;999.90;;;;;;;35.48;33.51;94881.38;4993607;28;20323;-78
2022/07/25 07:40:21;;;;;;;1999.90;999.90;;;;;;;35.56;31.74;94885.81;4993376;28;20609;-78
2022/07/25 07:42:48;;;;;;;1999.90;999.90;;;;;;;35.65;33.03;94891.03;5008991;28;20188;-78
2022/07/25 07:45:17;;;;;;;1999.90;999.90;;;;;;;35.84;31.57;94885.44;5012895;28;20180;-78
2022/07/25 07:47:43;;;;;;;1999.90;999.90;;;;;;;35.96;31.68;94870.72;5012928;28;20566;-78
2022/07/25 07:50:10;;;;;;;1999.90;999.90;;;;;;;36.25;31.06;94884.44;5013046;28;20172;-78
2022/07/25 07:52:35;;;;;;;1999.90;999.90;;;;;;;35.99;31.57;94880.94;5012749;28;20195;-78
2022/07/25 07:57:45;;;;;;;1999.90;999.90;;;;;;;35.43;30.92;94882.50;5012034;28;20243;-77
2022/07/25 08:00:11;;;;;;;1999.90;999.90;;;;;;;34.82;31.80;94882.66;5011788;28;20236;-76
2022/07/25 08:02:48;;;;;;;1999.90;999.90;;;;;;;34.04;33.33;94860.03;5011851;28;20570;-77
2022/07/25 08:05:32;;;;;;;1999.90;999.90;;;;;;;33.45;34.04;94862.25;5012085;28;20215;-77
2022/07/25 08:07:58;;;;;;;1999.90;999.90;;;;;;;32.89;34.90;94885.06;5012011;28;20653;-76
2022/07/25 08:10:29;;;;;;;1999.90;999.90;;;;;;;32.97;35.14;94862.25;5010846;28;20302;-76
2022/07/25 08:12:55;;;;;;;1999.90;999.90;;;;;;;32.89;35.08;94878.81;5010931;28;20193;-76
2022/07/25 08:15:21;;;;;;;1999.90;999.90;;;;;;;32.39;37.17;94884.88;5010802;28;20172;-75
2022/07/25 08:17:49;;;;;;;1999.90;999.90;;;;;;;32.93;35.95;94880.50;5011285;28;20180;-76
2022/07/25 08:20:15;;;;;;;1999.90;999.90;;;;;;;33.19;35.01;94876.44;5011293;28;20172;-75
2022/07/25 08:22:44;;;;;;;1999.90;999.90;;;;;;;33.24;34.82;94874.25;5011255;28;20157;-76
2022/07/25 08:25:12;;;;;;;1999.90;999.90;;;;;;;33.10;34.72;94876.63;5011456;28;20172;-76
2022/07/25 08:27:38;;;;;;;1999.90;999.90;;;;;;;33.26;35.97;94873.91;5011469;28;20176;-76
2022/07/25 08:30:05;;;;;;;1999.90;999.90;;;;;;;33.72;35.56;94870.28;5011627;28;20250;-77
2022/07/25 08:32:31;;;;;;;1999.90;999.90;;;;;;;33.67;33.63;94877.94;5011142;28;20642;-77
2022/07/25 08:34:58;;;;;;;1999.90;999.90;;;;;;;34.06;34.28;94870.59;5011446;28;20181;-76
2022/07/25 08:37:24;;;;;;;1999.90;999.90;;;;;;;33.87;32.49;94862.41;5011500;28;20259;-76
2022/07/25 08:39:50;;;;;;;1999.90;999.90;;;;;;;34.03;34.28;94872.13;5011150;28;20188;-76
2022/07/25 08:42:20;;;;;;;1999.90;999.90;;;;;;;34.38;33.09;94874.78;5011395;28;20179;-77
2022/07/25 08:44:56;;;;;;;1999.90;999.90;;;;;;;34.86;32.80;94883.47;5011263;28;20262;-76
2022/07/25 08:47:22;;;;;;;1999.90;999.90;;;;;;;35.02;31.77;94870.50;5011108;28;20271;-77
2022/07/25 08:49:48;;;;;;;1999.90;999.90;;;;;;;35.00;31.17;94858.31;5011150;28;20255;-77
2022/07/25 08:52:14;;;;;;;1999.90;999.90;;;;;;;35.14;31.68;94866.75;5011238;28;20179;-77
2022/07/25 08:54:39;;;;;;;1999.90;999.90;;;;;;;35.13;31.42;94865.97;5011338;28;20172;-78
2022/07/25 08:57:05;;;;;;;1999.90;999.90;;;;;;;35.07;31.54;94866.63;5011069;28;20188;-76
2022/07/25 08:59:31;;;;;;;1999.90;999.90;;;;;;;35.25;31.17;94872.44;5010921;28;20259;-76
2022/07/25 09:02:00;;;;;;;1999.90;999.90;;;;;;;34.91;30.81;94866.00;5010761;28;20724;-76
2022/07/25 09:04:31;;;;;;;1999.90;999.90;;;;;;;34.45;32.00;94863.97;5010878;28;20292;-77
2022/07/25 09:06:57;;;;;;;1999.90;999.90;;;;;;;33.77;32.41;94863.75;5011186;28;20227;-76
2022/07/25 09:09:34;;;;;;;1999.90;999.90;;;;;;;33.84;33.47;94866.63;5011099;28;20176;-77
2022/07/25 09:11:59;;;;;;;1999.90;999.90;;;;;;;34.00;33.20;94852.91;4993110;28;20234;-76
2022/07/25 09:14:25;;;;;;;1999.90;999.90;;;;;;;33.89;34.09;94839.03;5010966;28;20176;-76
2022/07/25 09:16:52;;;;;;;1999.90;999.90;;;;;;;34.22;33.77;94838.50;5010637;28;20247;-76
2022/07/25 09:19:22;;;;;;;1999.90;999.90;;;;;;;34.09;32.75;94848.81;5010857;28;20623;-77
2022/07/25 09:22:05;;;;;;;1999.90;999.90;;;;;;;34.21;32.86;94847.88;5011243;28;20200;-78
2022/07/25 09:24:31;;;;;;;1999.90;999.90;;;;;;;34.33;33.25;94838.75;5014525;28;20196;-77
2022/07/25 09:27:08;;;;;;;1999.90;999.90;;;;;;;34.59;31.71;94847.06;5015313;28;20180;-77
2022/07/25 09:29:35;;;;;;;1999.90;999.90;;;;;;;34.87;31.52;94845.97;5015567;28;20546;-78
2022/07/25 09:32:12;;;;;;;1999.90;999.90;;;;;;;34.69;32.03;94842.91;4996979;28;20187;-77
2022/07/25 09:34:43;;;;;;;1999.90;999.90;;;;;;;34.30;32.26;94834.78;5012492;28;20171;-77
2022/07/25 09:37:11;;;;;;;1999.90;999.90;;;;;;;34.37;31.58;94836.84;5014524;28;20164;-77
2022/07/25 09:39:41;;;;;;;1999.90;999.90;;;;;;;33.91;32.10;94833.19;5014554;28;20251;-76
2022/07/25 09:42:36;;;;;;;1999.90;999.90;;;;;;;33.53;32.89;94821.09;5014617;28;20184;-77
2022/07/25 09:45:12;;;;;;;1999.90;999.90;;;;;;;33.42;33.13;94835.63;5014513;28;20183;-77
2022/07/25 09:47:59;;;;;;;1999.90;999.90;;;;;;;32.82;33.68;94830.34;5014649;28;20258;-77
2022/07/25 09:50:27;;;;;;;1999.90;999.90;;;;;;;32.65;34.72;94832.59;5014610;28;20173;-77
2022/07/25 09:52:55;;;;;;;1999.90;999.90;;;;;;;32.55;34.06;94834.69;5013317;28;20184;-76
2022/07/25 09:55:22;;;;;;;1999.90;999.90;;;;;;;32.60;31.84;94829.00;5014467;28;20184;-77
2022/07/25 09:57:48;;;;;;;1999.90;999.90;;;;;;;32.48;32.21;94826.34;5014400;28;20239;-76
2022/07/25 10:00:19;;;;;;;1999.90;999.90;;;;;;;32.34;32.86;94834.16;5013544;28;20224;-76
2022/07/25 10:02:53;;;;;;;1999.90;999.90;;;;;;;32.39;34.45;94824.91;5014043;28;20634;-76
2022/07/25 10:05:40;;;;;;;1999.90;999.90;;;;;;;31.99;34.41;94836.69;5014089;28;20175;-80
2022/07/25 10:08:07;;;;;;;1999.90;999.90;;;;;;;31.74;33.86;94792.38;5014322;28;20271;-76
2022/07/25 10:10:38;;;;;;;1999.90;999.90;;;;;;;31.79;33.76;94821.31;5013449;28;20638;-77
2022/07/25 10:13:09;;;;;;;1999.90;999.90;;;;;;;31.75;34.41;94820.41;5014001;28;20169;-75
2022/07/25 10:15:39;;;;;;;1999.90;999.90;;;;;;;31.73;35.42;94809.09;5013976;28;20221;-77
2022/07/25 10:18:07;;;;;;;1999.90;999.90;;;;;;;32.12;35.61;94823.78;5013436;28;20263;-76
2022/07/25 10:20:33;;;;;;;1999.90;999.90;;;;;;;32.29;33.46;94814.50;5013792;28;20188;-76
2022/07/25 10:22:59;;;;;;;1999.90;999.90;;;;;;;32.16;34.15;94808.34;5012750;28;20200;-76
2022/07/25 10:25:24;;;;;;;1999.90;999.90;;;;;;;31.91;34.97;94787.78;5012044;28;20172;-76
2022/07/25 10:27:59;;;;;;;1999.90;999.90;;;;;;;31.98;34.32;94810.56;5011823;28;20238;-77
2022/07/25 10:30:32;;;;;;;1999.90;999.90;;;;;;;31.88;34.28;94813.00;4993553;28;20178;-76
2022/07/25 10:32:58;;;;;;;1999.90;999.90;;;;;;;31.75;34.81;94812.22;5011109;28;20176;-76
2022/07/25 10:35:25;;;;;;;1999.90;999.90;;;;;;;31.66;34.40;94817.03;5009912;28;20176;-76
2022/07/25 10:37:53;;;;;;;1999.90;999.90;;;;;;;31.42;34.50;94805.03;5011318;28;20172;-76
2022/07/25 10:40:34;;;;;;;1999.90;999.90;;;;;;;31.40;34.24;94803.78;5012182;28;20249;-76
2022/07/25 10:43:06;;;;;;;1999.90;999.90;;;;;;;31.45;35.79;94803.56;5012943;28;20196;-77
2022/07/25 10:45:40;;;;;;;1999.90;999.90;;;;;;;31.60;35.08;94794.69;5012671;28;20296;-76
2022/07/25 10:48:11;;;;;;;1999.90;999.90;;;;;;;31.70;35.13;94798.88;5012847;28;20234;-76
2022/07/25 10:50:51;;;;;;;1999.90;999.90;;;;;;;32.03;34.13;94793.16;5013035;28;20195;-76
2022/07/25 10:53:47;;;;;;;1999.90;999.90;;;;;;;32.11;33.49;94752.13;5012729;28;20172;-76
2022/07/25 10:56:18;;;;;;;1999.90;999.90;;;;;;;32.20;32.90;94787.44;4996515;28;20192;-76
2022/07/25 10:59:00;;;;;;;1999.90;999.90;;;;;;;32.40;33.65;94788.34;5012485;28;20183;-76
2022/07/25 11:01:32;;;;;;;1999.90;999.90;;;;;;;32.72;33.45;94778.25;5012798;28;20617;-76
2022/07/25 11:04:03;;;;;;;1999.90;999.90;;;;;;;32.75;31.40;94789.25;5012650;28;20552;-76
2022/07/25 11:06:37;;;;;;;1999.90;999.90;;;;;;;32.72;31.68;94778.25;5012430;28;20624;-76
2022/07/25 11:09:12;;;;;;;1999.90;999.90;;;;;;;32.51;30.89;94782.03;5012378;28;20242;-76
2022/07/25 11:11:42;;;;;;;1999.90;999.90;;;;;;;32.51;31.73;94784.75;5012257;28;20254;-76
2022/07/25 11:14:22;;;;;;;1999.90;999.90;;;;;;;32.63;30.80;94774.88;5012301;28;20169;-76